createdAt,value
2023-03-12T00:00:59.360Z,0.00
2023-03-12T00:01:59.575Z,0.00
2023-03-12T00:02:59.818Z,0.00
2023-03-12T00:04:00.142Z,0.00
2023-03-12T00:05:00.257Z,0.00
2023-03-12T00:06:09.833Z,0.00
2023-03-12T00:07:01.609Z,0.00
2023-03-12T00:08:00.836Z,0.00
2023-03-12T00:09:01.012Z,0.00
2023-03-12T00:10:01.208Z,0.00
2023-03-12T00:11:01.409Z,0.00
2023-03-12T00:12:01.662Z,0.00
2023-03-12T00:13:01.871Z,0.00
2023-03-12T00:14:02.072Z,0.00
2023-03-12T00:15:02.292Z,0.00
2023-03-12T00:16:02.490Z,0.00
2023-03-12T00:17:02.685Z,0.00
2023-03-12T00:18:02.888Z,0.00
2023-03-12T00:19:03.109Z,0.00
2023-03-12T00:20:03.297Z,0.00
2023-03-12T00:21:03.482Z,0.00
2023-03-12T00:22:03.687Z,0.00
2023-03-12T00:23:03.874Z,0.00
2023-03-12T00:24:04.131Z,0.00
2023-03-12T00:25:04.292Z,0.00
2023-03-12T00:26:04.486Z,0.00
2023-03-12T00:27:04.683Z,0.00
2023-03-12T00:28:04.890Z,0.00
2023-03-12T00:29:05.091Z,0.00
2023-03-12T00:30:05.286Z,0.00
2023-03-12T00:31:05.554Z,0.00
2023-03-12T00:32:05.624Z,0.00
2023-03-12T00:33:05.824Z,0.00
2023-03-12T00:34:06.033Z,0.00
2023-03-12T00:35:06.220Z,0.00
2023-03-12T00:36:06.431Z,0.00
2023-03-12T00:37:06.618Z,0.00
2023-03-12T00:38:06.819Z,0.00
2023-03-12T00:39:07.021Z,0.00
2023-03-12T00:40:07.217Z,0.00
2023-03-12T00:41:07.404Z,0.00
2023-03-12T00:42:07.595Z,0.00
2023-03-12T00:43:07.788Z,0.00
2023-03-12T00:44:07.984Z,0.00
2023-03-12T00:45:08.186Z,0.00
2023-03-12T00:46:08.367Z,0.00
2023-03-12T00:47:08.553Z,0.00
2023-03-12T00:48:08.765Z,0.00
2023-03-12T00:49:08.959Z,0.00
2023-03-12T00:50:09.155Z,0.00
2023-03-12T00:51:09.360Z,0.00
2023-03-12T00:52:09.556Z,0.00
2023-03-12T00:53:09.742Z,0.00
2023-03-12T00:54:09.941Z,0.00
2023-03-12T00:55:10.069Z,0.00
2023-03-12T00:56:10.249Z,0.00
2023-03-12T00:57:10.429Z,0.00
2023-03-12T00:58:10.621Z,0.00
2023-03-12T00:59:10.822Z,0.00
2023-03-12T01:00:11.016Z,0.00
2023-03-12T01:01:11.371Z,0.00
2023-03-12T01:02:11.409Z,0.00
2023-03-12T01:03:11.619Z,0.00
2023-03-12T01:04:11.857Z,0.00
2023-03-12T01:05:12.043Z,0.00
2023-03-12T01:06:12.213Z,0.00
2023-03-12T01:07:12.402Z,0.00
2023-03-12T01:08:12.599Z,0.00
2023-03-12T01:09:12.797Z,0.00
2023-03-12T01:10:12.979Z,0.00
2023-03-12T01:11:13.172Z,0.00
2023-03-12T01:12:13.358Z,0.00
2023-03-12T01:13:13.548Z,0.00
2023-03-12T01:14:13.737Z,0.00
2023-03-12T01:15:13.914Z,0.00
2023-03-12T01:16:14.125Z,0.00
2023-03-12T01:17:14.328Z,0.00
2023-03-12T01:18:14.511Z,0.00
2023-03-12T01:19:14.691Z,0.00
2023-03-12T01:20:14.874Z,0.00
2023-03-12T01:21:15.049Z,0.00
2023-03-12T01:22:15.210Z,0.00
2023-03-12T01:23:15.385Z,0.00
2023-03-12T01:24:15.593Z,0.00
2023-03-12T01:25:15.747Z,0.00
2023-03-12T01:26:15.918Z,0.00
2023-03-12T01:27:16.088Z,0.00
2023-03-12T01:28:16.274Z,0.00
2023-03-12T01:29:16.458Z,0.00
2023-03-12T01:30:16.628Z,0.00
2023-03-12T01:31:16.849Z,0.00
2023-03-12T01:32:17.087Z,0.00
2023-03-12T01:33:17.227Z,0.00
2023-03-12T01:34:17.408Z,0.00
2023-03-12T01:35:17.592Z,0.00
2023-03-12T01:36:17.825Z,0.00
2023-03-12T01:37:17.986Z,0.00
2023-03-12T01:38:18.156Z,0.00
2023-03-12T01:39:18.345Z,0.00
2023-03-12T01:40:18.529Z,0.00
2023-03-12T01:41:18.697Z,0.00
2023-03-12T01:42:18.890Z,0.00
2023-03-12T01:43:19.063Z,0.00
2023-03-12T01:44:19.278Z,0.00
2023-03-12T01:45:19.448Z,0.00
2023-03-12T01:46:19.653Z,0.00
2023-03-12T01:47:19.833Z,0.00
2023-03-12T01:48:20.017Z,0.00
2023-03-12T01:49:20.208Z,0.00
2023-03-12T01:50:20.410Z,0.00
2023-03-12T01:51:20.575Z,0.00
2023-03-12T01:52:20.764Z,0.00
2023-03-12T01:53:20.948Z,0.00
2023-03-12T01:54:21.149Z,0.00
2023-03-12T01:55:21.313Z,0.00
2023-03-12T01:56:21.502Z,0.00
2023-03-12T01:57:21.677Z,0.00
2023-03-12T01:58:21.848Z,0.00
2023-03-12T01:59:22.026Z,0.00
2023-03-12T02:00:22.213Z,0.00
2023-03-12T02:01:22.444Z,0.00
2023-03-12T02:02:22.628Z,0.00
2023-03-12T02:03:22.806Z,0.00
2023-03-12T02:04:23.077Z,0.00
2023-03-12T02:05:23.147Z,0.00
2023-03-12T02:06:23.323Z,0.00
2023-03-12T02:07:23.488Z,0.00
2023-03-12T02:08:23.674Z,0.00
2023-03-12T02:09:23.848Z,0.00
2023-03-12T02:10:24.023Z,0.00
2023-03-12T02:11:24.200Z,0.00
2023-03-12T02:12:24.379Z,0.00
2023-03-12T02:13:24.543Z,0.00
2023-03-12T02:14:24.724Z,0.00
2023-03-12T02:15:24.888Z,0.00
2023-03-12T02:16:25.073Z,0.00
2023-03-12T02:17:25.232Z,0.00
2023-03-12T02:18:25.402Z,0.00
2023-03-12T02:19:25.580Z,0.00
2023-03-12T02:20:25.753Z,0.00
2023-03-12T02:21:25.906Z,0.00
2023-03-12T02:22:26.070Z,0.00
2023-03-12T02:23:26.240Z,0.00
2023-03-12T02:24:26.412Z,0.00
2023-03-12T02:25:26.564Z,0.00
2023-03-12T02:26:26.726Z,0.00
2023-03-12T02:27:26.876Z,0.00
2023-03-12T02:28:27.031Z,0.00
2023-03-12T02:29:27.205Z,0.00
2023-03-12T02:30:27.359Z,0.00
2023-03-12T02:31:27.540Z,0.00
2023-03-12T02:32:27.818Z,0.00
2023-03-12T02:33:27.978Z,0.00
2023-03-12T02:34:28.169Z,0.00
2023-03-12T02:35:28.307Z,0.00
2023-03-12T02:36:28.467Z,0.00
2023-03-12T02:37:28.625Z,0.00
2023-03-12T02:38:28.781Z,0.00
2023-03-12T02:39:28.977Z,0.00
2023-03-12T02:40:29.116Z,0.00
2023-03-12T02:41:29.275Z,0.00
2023-03-12T02:42:29.444Z,0.00
2023-03-12T02:43:29.597Z,0.00
2023-03-12T02:44:29.776Z,0.00
2023-03-12T02:45:29.938Z,0.00
2023-03-12T02:46:30.111Z,0.00
2023-03-12T02:47:30.260Z,0.00
2023-03-12T02:48:30.421Z,0.00
2023-03-12T02:49:30.605Z,0.00
2023-03-12T02:50:30.763Z,0.00
2023-03-12T02:51:30.910Z,0.00
2023-03-12T02:52:31.086Z,0.00
2023-03-12T02:53:31.244Z,0.00
2023-03-12T02:54:31.434Z,0.00
2023-03-12T02:55:31.595Z,0.00
2023-03-12T02:56:31.760Z,0.00
2023-03-12T02:57:31.920Z,0.00
2023-03-12T02:58:32.088Z,0.00
2023-03-12T02:59:32.269Z,0.00
2023-03-12T03:00:32.441Z,0.00
2023-03-12T03:01:32.651Z,0.00
2023-03-12T03:02:32.812Z,0.00
2023-03-12T03:03:32.973Z,0.00
2023-03-12T03:04:33.255Z,0.00
2023-03-12T03:05:33.308Z,0.00
2023-03-12T03:06:33.487Z,0.00
2023-03-12T03:07:33.653Z,0.00
2023-03-12T03:08:33.830Z,0.00
2023-03-12T03:09:34.015Z,0.00
2023-03-12T03:10:34.203Z,0.00
2023-03-12T03:11:34.370Z,0.00
2023-03-12T03:12:34.561Z,0.00
2023-03-12T03:13:34.729Z,0.00
2023-03-12T03:14:34.945Z,0.00
2023-03-12T03:15:35.183Z,0.00
2023-03-12T03:16:35.271Z,0.00
2023-03-12T03:17:35.460Z,0.00
2023-03-12T03:18:35.642Z,0.00
2023-03-12T03:19:35.821Z,0.00
2023-03-12T03:20:36.011Z,0.00
2023-03-12T03:21:36.225Z,0.00
2023-03-12T03:22:36.408Z,0.00
2023-03-12T03:23:36.586Z,0.00
2023-03-12T03:24:36.803Z,0.00
2023-03-12T03:25:36.955Z,0.00
2023-03-12T03:26:37.153Z,0.00
2023-03-12T03:27:37.347Z,0.00
2023-03-12T03:28:37.520Z,0.00
2023-03-12T03:29:37.712Z,0.00
2023-03-12T03:30:37.900Z,0.00
2023-03-12T03:31:38.076Z,0.00
2023-03-12T03:32:38.348Z,0.00
2023-03-12T03:33:38.449Z,0.00
2023-03-12T03:34:38.649Z,0.00
2023-03-12T03:35:45.938Z,0.00
2023-03-12T03:36:39.070Z,0.00
2023-03-12T03:37:39.252Z,0.00
2023-03-12T03:38:39.447Z,0.00
2023-03-12T03:39:39.661Z,0.00
2023-03-12T03:40:39.871Z,0.00
2023-03-12T03:41:40.072Z,0.00
2023-03-12T03:42:40.268Z,0.00
2023-03-12T03:43:40.448Z,0.00
2023-03-12T03:44:40.659Z,0.00
2023-03-12T03:45:40.847Z,0.00
2023-03-12T03:46:41.132Z,0.00
2023-03-12T03:47:41.283Z,0.00
2023-03-12T03:48:41.500Z,0.00
2023-03-12T03:49:41.707Z,0.00
2023-03-12T03:50:41.891Z,0.00
2023-03-12T03:51:42.076Z,0.00
2023-03-12T03:52:42.297Z,0.00
2023-03-12T03:53:42.480Z,0.00
2023-03-12T03:54:42.704Z,0.00
2023-03-12T03:55:42.900Z,0.00
2023-03-12T03:56:43.099Z,0.00
2023-03-12T03:57:43.299Z,0.00
2023-03-12T03:58:43.488Z,0.00
2023-03-12T03:59:43.685Z,0.00
2023-03-12T04:00:43.902Z,0.00
2023-03-12T04:01:44.099Z,0.00
2023-03-12T04:02:44.298Z,0.00
2023-03-12T04:03:44.531Z,0.00
2023-03-12T04:04:44.720Z,0.00
2023-03-12T04:05:44.923Z,0.00
2023-03-12T04:06:45.159Z,0.00
2023-03-12T04:07:45.369Z,0.00
2023-03-12T04:08:45.575Z,0.00
2023-03-12T04:09:45.764Z,0.00
2023-03-12T04:10:45.964Z,0.00
2023-03-12T04:11:46.143Z,0.00
2023-03-12T04:12:46.349Z,0.00
2023-03-12T04:13:46.526Z,0.00
2023-03-12T04:14:46.748Z,0.00
2023-03-12T04:15:46.946Z,0.00
2023-03-12T04:16:47.098Z,0.00
2023-03-12T04:17:47.289Z,0.00
2023-03-12T04:18:47.491Z,0.00
2023-03-12T04:19:47.705Z,0.00
2023-03-12T04:20:47.924Z,0.00
2023-03-12T04:21:48.120Z,0.00
2023-03-12T04:22:48.320Z,0.00
2023-03-12T04:23:48.519Z,0.00
2023-03-12T04:24:48.733Z,0.00
2023-03-12T04:25:48.936Z,0.00
2023-03-12T04:26:49.148Z,0.00
2023-03-12T04:27:49.335Z,0.00
2023-03-12T04:28:49.541Z,0.00
2023-03-12T04:29:49.750Z,0.00
2023-03-12T04:30:49.960Z,0.00
2023-03-12T04:31:50.160Z,0.00
2023-03-12T04:32:50.404Z,0.00
2023-03-12T04:33:50.600Z,0.00
2023-03-12T04:34:50.848Z,0.00
2023-03-12T04:35:51.098Z,0.00
2023-03-12T04:36:51.289Z,0.00
2023-03-12T04:37:51.488Z,0.00
2023-03-12T04:38:51.700Z,0.00
2023-03-12T04:39:51.930Z,0.00
2023-03-12T04:40:52.109Z,0.00
2023-03-12T04:41:52.327Z,0.00
2023-03-12T04:42:53.017Z,0.00
2023-03-12T04:43:52.697Z,0.00
2023-03-12T04:44:52.933Z,0.00
2023-03-12T04:45:53.136Z,0.00
2023-03-12T04:46:53.461Z,0.00
2023-03-12T04:47:53.570Z,0.00
2023-03-12T04:48:53.762Z,0.00
2023-03-12T04:49:54.000Z,0.00
2023-03-12T04:50:54.181Z,0.00
2023-03-12T04:51:54.378Z,0.00
2023-03-12T04:52:54.583Z,0.00
2023-03-12T04:53:54.807Z,0.00
2023-03-12T04:54:54.999Z,0.00
2023-03-12T04:55:55.232Z,0.00
2023-03-12T04:56:55.438Z,0.00
2023-03-12T04:57:55.693Z,0.00
2023-03-12T04:58:55.878Z,0.00
2023-03-12T04:59:56.109Z,0.00
2023-03-12T05:00:56.322Z,0.00
2023-03-12T05:01:56.560Z,0.00
2023-03-12T05:02:56.838Z,0.00
2023-03-12T05:03:57.008Z,0.00
2023-03-12T05:04:57.156Z,0.00
2023-03-12T05:05:57.392Z,0.00
2023-03-12T05:06:57.609Z,0.00
2023-03-12T05:07:57.864Z,0.00
2023-03-12T05:08:57.978Z,0.00
2023-03-12T05:09:58.201Z,0.00
2023-03-12T05:10:58.454Z,0.00
2023-03-12T05:11:58.576Z,0.00
2023-03-12T05:12:58.811Z,0.00
2023-03-12T05:13:59.025Z,0.00
2023-03-12T05:14:59.252Z,0.00
2023-03-12T05:15:59.526Z,0.00
2023-03-12T05:16:59.661Z,0.00
2023-03-12T05:17:59.919Z,0.00
2023-03-12T05:19:00.071Z,5.62
2023-03-12T05:20:00.272Z,5.62
2023-03-12T05:21:00.499Z,5.62
2023-03-12T05:22:00.929Z,5.62
2023-03-12T05:23:00.904Z,5.62
2023-03-12T05:24:01.121Z,5.62
2023-03-12T05:25:01.348Z,11.25
2023-03-12T05:26:01.563Z,11.25
2023-03-12T05:27:01.777Z,11.25
2023-03-12T05:28:01.994Z,11.25
2023-03-12T05:29:02.297Z,11.25
2023-03-12T05:30:02.417Z,16.88
2023-03-12T05:31:02.590Z,16.88
2023-03-12T05:32:02.876Z,16.88
2023-03-12T05:33:02.964Z,16.88
2023-03-12T05:34:03.181Z,22.50
2023-03-12T05:35:03.391Z,22.50
2023-03-12T05:36:03.665Z,22.50
2023-03-12T05:37:03.842Z,28.12
2023-03-12T05:38:04.059Z,28.12
2023-03-12T05:39:04.279Z,33.75
2023-03-12T05:40:04.498Z,33.75
2023-03-12T05:41:04.704Z,33.75
2023-03-12T05:42:04.913Z,39.38
2023-03-12T05:43:05.114Z,39.38
2023-03-12T05:44:05.337Z,45.00
2023-03-12T05:45:05.582Z,45.00
2023-03-12T05:46:05.825Z,50.62
2023-03-12T05:47:05.925Z,50.62
2023-03-12T05:48:06.131Z,56.25
2023-03-12T05:49:06.346Z,56.25
2023-03-12T05:50:06.623Z,56.25
2023-03-12T05:51:06.718Z,61.88
2023-03-12T05:52:06.920Z,61.88
2023-03-12T05:53:07.116Z,67.50
2023-03-12T05:54:07.332Z,67.50
2023-03-12T05:55:07.547Z,73.12
2023-03-12T05:56:07.752Z,73.12
2023-03-12T05:57:07.966Z,78.75
2023-03-12T05:58:08.199Z,78.75
2023-03-12T05:59:08.289Z,84.38
2023-03-12T06:00:08.521Z,84.38
2023-03-12T06:01:08.719Z,90.00
2023-03-12T06:02:08.955Z,90.00
2023-03-12T06:03:09.205Z,90.00
2023-03-12T06:04:09.408Z,95.62
2023-03-12T06:05:09.528Z,95.62
2023-03-12T06:06:09.745Z,101.25
2023-03-12T06:07:09.952Z,101.25
2023-03-12T06:08:10.169Z,106.88
2023-03-12T06:09:10.367Z,106.88
2023-03-12T06:10:10.615Z,106.88
2023-03-12T06:11:10.823Z,112.50
2023-03-12T06:12:11.033Z,112.50
2023-03-12T06:13:11.247Z,118.12
2023-03-12T06:14:11.448Z,118.12
2023-03-12T06:15:11.651Z,118.12
2023-03-12T06:16:11.944Z,123.75
2023-03-12T06:17:12.047Z,129.38
2023-03-12T06:18:12.288Z,135.00
2023-03-12T06:19:12.484Z,146.25
2023-03-12T06:20:12.694Z,163.12
2023-03-12T06:21:12.919Z,191.25
2023-03-12T06:22:13.089Z,219.38
2023-03-12T06:23:13.281Z,230.62
2023-03-12T06:24:13.488Z,236.25
2023-03-12T06:25:13.707Z,241.88
2023-03-12T06:26:13.908Z,247.50
2023-03-12T06:27:14.088Z,247.50
2023-03-12T06:28:14.276Z,247.50
2023-03-12T06:29:14.498Z,253.12
2023-03-12T06:30:14.689Z,275.62
2023-03-12T06:31:14.896Z,258.75
2023-03-12T06:32:15.170Z,270.00
2023-03-12T06:33:15.233Z,281.25
2023-03-12T06:34:15.405Z,270.00
2023-03-12T06:35:15.585Z,270.00
2023-03-12T06:36:15.737Z,264.38
2023-03-12T06:37:15.863Z,241.88
2023-03-12T06:38:16.024Z,236.25
2023-03-12T06:39:16.154Z,258.75
2023-03-12T06:40:16.313Z,315.00
2023-03-12T06:41:16.436Z,331.88
2023-03-12T06:42:16.575Z,354.38
2023-03-12T06:43:16.641Z,405.00
2023-03-12T06:44:16.857Z,478.12
2023-03-12T06:45:17.238Z,551.25
2023-03-12T06:46:17.137Z,624.38
2023-03-12T06:47:17.869Z,517.50
2023-03-12T06:48:17.419Z,466.88
2023-03-12T06:49:17.592Z,483.75
2023-03-12T06:50:17.787Z,511.88
2023-03-12T06:51:17.959Z,461.25
2023-03-12T06:52:18.142Z,444.38
2023-03-12T06:53:18.304Z,461.25
2023-03-12T06:54:18.506Z,506.25
2023-03-12T06:55:18.689Z,489.38
2023-03-12T06:56:18.847Z,523.12
2023-03-12T06:57:19.019Z,523.12
2023-03-12T06:58:19.194Z,506.25
2023-03-12T06:59:19.338Z,478.12
2023-03-12T07:00:19.537Z,376.88
2023-03-12T07:01:19.578Z,433.12
2023-03-12T07:02:19.764Z,388.12
2023-03-12T07:03:19.908Z,461.25
2023-03-12T07:04:20.058Z,686.25
2023-03-12T07:05:20.283Z,742.50
2023-03-12T07:06:20.350Z,916.88
2023-03-12T07:07:20.497Z,849.38
2023-03-12T07:08:20.681Z,821.25
2023-03-12T07:09:20.852Z,708.75
2023-03-12T07:10:21.145Z,545.62
2023-03-12T07:11:21.172Z,540.00
2023-03-12T07:12:21.326Z,500.62
2023-03-12T07:13:21.510Z,511.88
2023-03-12T07:14:21.667Z,478.12
2023-03-12T07:15:21.821Z,483.75
2023-03-12T07:16:22.002Z,534.38
2023-03-12T07:17:22.156Z,556.88
2023-03-12T07:18:22.349Z,624.38
2023-03-12T07:19:22.483Z,618.75
2023-03-12T07:20:22.670Z,652.50
2023-03-12T07:21:22.909Z,680.62
2023-03-12T07:22:22.937Z,646.88
2023-03-12T07:23:23.108Z,675.00
2023-03-12T07:24:23.280Z,613.12
2023-03-12T07:25:23.471Z,624.38
2023-03-12T07:26:23.609Z,821.25
2023-03-12T07:27:23.760Z,911.25
2023-03-12T07:28:23.922Z,871.88
2023-03-12T07:29:24.068Z,967.50
2023-03-12T07:30:24.258Z,1462.50
2023-03-12T07:31:24.425Z,1068.75
2023-03-12T07:32:24.597Z,1108.12
2023-03-12T07:33:24.844Z,1130.62
2023-03-12T07:34:24.954Z,1085.62
2023-03-12T07:35:25.156Z,1248.75
2023-03-12T07:36:25.378Z,1271.25
2023-03-12T07:37:25.318Z,1411.88
2023-03-12T07:38:25.550Z,1383.75
2023-03-12T07:39:25.684Z,1434.38
2023-03-12T07:40:25.743Z,1693.12
2023-03-12T07:41:25.890Z,1603.12
2023-03-12T07:42:26.055Z,1423.12
2023-03-12T07:43:26.246Z,1507.50
2023-03-12T07:44:26.284Z,1620.00
2023-03-12T07:45:26.488Z,1676.25
2023-03-12T07:46:26.598Z,1760.62
2023-03-12T07:47:26.718Z,1805.62
2023-03-12T07:48:26.743Z,1850.62
2023-03-12T07:49:26.811Z,1884.38
2023-03-12T07:50:27.015Z,1951.88
2023-03-12T07:51:27.055Z,1912.50
2023-03-12T07:52:27.271Z,1918.12
2023-03-12T07:53:27.298Z,1980.00
2023-03-12T07:54:27.482Z,2075.62
2023-03-12T07:55:27.498Z,1850.62
2023-03-12T07:56:27.605Z,1653.75
2023-03-12T07:57:27.737Z,1096.88
2023-03-12T07:58:27.926Z,1001.25
2023-03-12T07:59:28.023Z,596.25
2023-03-12T08:00:28.075Z,652.50
2023-03-12T08:01:28.229Z,1040.62
2023-03-12T08:02:28.350Z,1873.12
2023-03-12T08:03:28.502Z,2013.75
2023-03-12T08:04:28.680Z,2058.75
2023-03-12T08:05:28.649Z,2081.25
2023-03-12T08:06:28.752Z,2002.50
2023-03-12T08:07:28.845Z,1996.88
2023-03-12T08:08:28.973Z,2058.75
2023-03-12T08:09:29.057Z,1974.38
2023-03-12T08:10:29.264Z,1743.75
2023-03-12T08:11:29.171Z,1597.50
2023-03-12T08:12:29.326Z,1940.62
2023-03-12T08:13:29.387Z,1760.62
2023-03-12T08:14:29.368Z,1968.75
2023-03-12T08:15:29.412Z,2272.50
2023-03-12T08:16:29.537Z,2323.12
2023-03-12T08:17:29.591Z,2328.75
2023-03-12T08:18:29.686Z,2165.62
2023-03-12T08:19:29.734Z,2058.75
2023-03-12T08:20:29.832Z,2064.38
2023-03-12T08:21:29.906Z,1912.50
2023-03-12T08:22:29.994Z,1873.12
2023-03-12T08:23:30.082Z,1839.38
2023-03-12T08:24:30.186Z,2160.00
2023-03-12T08:25:30.284Z,2542.50
2023-03-12T08:26:30.353Z,2486.25
2023-03-12T08:27:30.440Z,2255.62
2023-03-12T08:28:30.517Z,2036.25
2023-03-12T08:29:30.581Z,1794.38
2023-03-12T08:30:30.797Z,1681.88
2023-03-12T08:31:30.776Z,2103.75
2023-03-12T08:32:31.965Z,2199.38
2023-03-12T08:33:30.910Z,2115.00
2023-03-12T08:34:30.999Z,2323.12
2023-03-12T08:35:31.148Z,2475.00
2023-03-12T08:36:31.208Z,2272.50
2023-03-12T08:37:31.263Z,2070.00
2023-03-12T08:38:31.341Z,1912.50
2023-03-12T08:39:31.410Z,1991.25
2023-03-12T08:40:31.513Z,1906.88
2023-03-12T08:41:31.557Z,1850.62
2023-03-12T08:42:31.669Z,1625.62
2023-03-12T08:43:31.757Z,1597.50
2023-03-12T08:44:31.793Z,1783.12
2023-03-12T08:45:31.954Z,1766.25
2023-03-12T08:46:31.893Z,1738.12
2023-03-12T08:47:31.963Z,1783.12
2023-03-12T08:48:32.023Z,1991.25
2023-03-12T08:49:32.112Z,1653.75
2023-03-12T08:50:32.233Z,1946.25
2023-03-12T08:51:32.216Z,2047.50
2023-03-12T08:52:32.275Z,2013.75
2023-03-12T08:53:32.341Z,1451.25
2023-03-12T08:54:32.425Z,1378.12
2023-03-12T08:55:32.557Z,1170.00
2023-03-12T08:56:32.498Z,883.12
2023-03-12T08:57:32.572Z,916.88
2023-03-12T08:58:32.640Z,928.12
2023-03-12T08:59:32.711Z,956.25
2023-03-12T09:00:32.799Z,1119.38
2023-03-12T09:01:32.875Z,1383.75
2023-03-12T09:02:32.948Z,1310.62
2023-03-12T09:03:33.091Z,1451.25
2023-03-12T09:04:33.119Z,1766.25
2023-03-12T09:05:33.222Z,2227.50
2023-03-12T09:06:33.379Z,2598.75
2023-03-12T09:07:33.374Z,2953.12
2023-03-12T09:08:33.447Z,3043.12
2023-03-12T09:09:33.522Z,2880.00
2023-03-12T09:10:33.612Z,3240.00
2023-03-12T09:11:33.726Z,3200.62
2023-03-12T09:12:33.811Z,3116.25
2023-03-12T09:13:57.800Z,3206.25
2023-03-12T09:15:02.060Z,3211.88
2023-03-12T09:15:34.931Z,3256.88
2023-03-12T09:16:33.995Z,2998.12
2023-03-12T09:17:34.069Z,2958.75
2023-03-12T09:18:34.116Z,3425.62
2023-03-12T09:19:34.163Z,2598.75
2023-03-12T09:20:34.203Z,2137.50
2023-03-12T09:21:34.252Z,2559.38
2023-03-12T09:22:34.300Z,1552.50
2023-03-12T09:23:34.327Z,3076.88
2023-03-12T09:24:34.356Z,3144.38
2023-03-12T09:25:34.393Z,2964.38
2023-03-12T09:26:34.466Z,3571.88
2023-03-12T09:27:34.549Z,3594.38
2023-03-12T09:28:34.468Z,3476.25
2023-03-12T09:29:34.512Z,3498.75
2023-03-12T09:30:34.587Z,3403.12
2023-03-12T09:31:34.646Z,3318.75
2023-03-12T09:32:34.752Z,1614.38
2023-03-12T09:33:34.677Z,1760.62
2023-03-12T09:34:34.703Z,1760.62
2023-03-12T09:35:34.819Z,1710.00
2023-03-12T09:36:41.729Z,1518.75
2023-03-12T09:37:34.798Z,1440.00
2023-03-12T09:38:34.833Z,1597.50
2023-03-12T09:39:34.877Z,1698.75
2023-03-12T09:40:34.927Z,1501.88
2023-03-12T09:41:34.954Z,1794.38
2023-03-12T09:42:35.018Z,1940.62
2023-03-12T09:43:35.074Z,1794.38
2023-03-12T09:44:35.124Z,2716.88
2023-03-12T09:45:35.214Z,2857.50
2023-03-12T09:46:35.272Z,3082.50
2023-03-12T09:47:35.354Z,3279.38
2023-03-12T09:48:35.395Z,3825.00
2023-03-12T09:49:35.451Z,3718.12
2023-03-12T09:50:35.513Z,3487.50
2023-03-12T09:51:35.551Z,3718.12
2023-03-12T09:52:35.601Z,3695.62
2023-03-12T09:53:35.669Z,3757.50
2023-03-12T09:54:35.703Z,3729.38
2023-03-12T09:55:35.753Z,3560.62
2023-03-12T09:56:35.792Z,3566.25
2023-03-12T09:57:35.914Z,3515.62
2023-03-12T09:58:35.849Z,3476.25
2023-03-12T09:59:35.902Z,3386.25
2023-03-12T10:00:35.918Z,2981.25
2023-03-12T10:01:35.961Z,2536.88
2023-03-12T10:02:36.026Z,2626.88
2023-03-12T10:03:36.135Z,2340.00
2023-03-12T10:04:48.704Z,2373.75
2023-03-12T10:05:37.036Z,2407.50
2023-03-12T10:06:36.083Z,2452.50
2023-03-12T10:07:36.177Z,2334.38
2023-03-12T10:08:36.151Z,2835.00
2023-03-12T10:09:36.244Z,2958.75
2023-03-12T10:10:36.307Z,2970.00
2023-03-12T10:11:36.344Z,2885.62
2023-03-12T10:12:36.397Z,3161.25
2023-03-12T10:13:36.440Z,2700.00
2023-03-12T10:14:36.468Z,2463.75
2023-03-12T10:15:36.496Z,2655.00
2023-03-12T10:16:36.531Z,2553.75
2023-03-12T10:17:36.613Z,2407.50
2023-03-12T10:18:36.745Z,2463.75
2023-03-12T10:19:36.606Z,2919.38
2023-03-12T10:20:36.624Z,2947.50
2023-03-12T10:21:37.619Z,3217.50
2023-03-12T10:22:36.662Z,2711.25
2023-03-12T10:23:36.693Z,2548.12
2023-03-12T10:24:36.708Z,2390.62
2023-03-12T10:25:36.755Z,2407.50
2023-03-12T10:26:36.796Z,2666.25
2023-03-12T10:27:36.850Z,2205.00
2023-03-12T10:28:36.876Z,2891.25
2023-03-12T10:29:36.926Z,3307.50
2023-03-12T10:30:36.953Z,3054.38
2023-03-12T10:31:36.993Z,2694.38
2023-03-12T10:32:37.048Z,2266.88
2023-03-12T10:33:37.077Z,2351.25
2023-03-12T10:34:37.099Z,2548.12
2023-03-12T10:35:37.168Z,3391.88
2023-03-12T10:36:37.213Z,3375.00
2023-03-12T10:37:37.322Z,2953.12
2023-03-12T10:38:37.239Z,3313.12
2023-03-12T10:39:37.274Z,4100.62
2023-03-12T10:40:37.349Z,3549.38
2023-03-12T10:41:37.395Z,2902.50
2023-03-12T10:42:37.438Z,1951.88
2023-03-12T10:43:37.476Z,1991.25
2023-03-12T10:44:37.492Z,1963.12
2023-03-12T10:45:37.504Z,2008.12
2023-03-12T10:46:37.588Z,2058.75
2023-03-12T10:47:37.661Z,2047.50
2023-03-12T10:48:37.679Z,2165.62
2023-03-12T10:49:37.719Z,2317.50
2023-03-12T10:50:37.772Z,2491.88
2023-03-12T10:51:37.808Z,2660.62
2023-03-12T10:52:37.866Z,2767.50
2023-03-12T10:53:37.853Z,2553.75
2023-03-12T10:54:37.899Z,1923.75
2023-03-12T10:55:37.949Z,2829.38
2023-03-12T10:56:37.966Z,3498.75
2023-03-12T10:57:38.033Z,3751.88
2023-03-12T10:58:38.055Z,2109.38
2023-03-12T10:59:38.127Z,2660.62
2023-03-12T11:00:38.174Z,2531.25
2023-03-12T11:01:38.244Z,3425.62
2023-03-12T11:02:38.294Z,2677.50
2023-03-12T11:03:38.330Z,1940.62
2023-03-12T11:04:38.358Z,1873.12
2023-03-12T11:05:38.445Z,1636.88
2023-03-12T11:06:38.401Z,1546.88
2023-03-12T11:07:38.486Z,1558.12
2023-03-12T11:08:38.513Z,1755.00
2023-03-12T11:09:38.613Z,1378.12
2023-03-12T11:10:38.633Z,1614.38
2023-03-12T11:11:38.695Z,1440.00
2023-03-12T11:12:38.775Z,1333.12
2023-03-12T11:13:38.793Z,1383.75
2023-03-12T11:14:38.857Z,1395.00
2023-03-12T11:15:38.969Z,1243.12
2023-03-12T11:16:38.934Z,1828.12
2023-03-12T11:17:39.000Z,2148.75
2023-03-12T11:18:39.055Z,1333.12
2023-03-12T11:19:39.124Z,1226.25
2023-03-12T11:20:39.194Z,1507.50
2023-03-12T11:21:39.296Z,1518.75
2023-03-12T11:22:39.362Z,2019.38
2023-03-12T11:23:39.422Z,1670.62
2023-03-12T11:24:39.487Z,2103.75
2023-03-12T11:25:39.573Z,1513.12
2023-03-12T11:26:39.655Z,1715.62
2023-03-12T11:27:39.739Z,1991.25
2023-03-12T11:28:39.820Z,1816.88
2023-03-12T11:29:40.212Z,1575.00
2023-03-12T11:30:40.040Z,1794.38
2023-03-12T11:31:40.169Z,1496.25
2023-03-12T11:32:40.240Z,1434.38
2023-03-12T11:33:40.311Z,1406.25
2023-03-12T11:34:40.401Z,1248.75
2023-03-12T11:35:40.553Z,1113.75
2023-03-12T11:36:40.523Z,1170.00
2023-03-12T11:37:40.652Z,1125.00
2023-03-12T11:38:40.687Z,1383.75
2023-03-12T11:39:40.830Z,1456.88
2023-03-12T11:40:40.826Z,1591.88
2023-03-12T11:41:40.914Z,1355.62
2023-03-12T11:42:41.003Z,1243.12
2023-03-12T11:43:43.937Z,1243.12
2023-03-12T11:44:41.154Z,1085.62
2023-03-12T11:45:41.282Z,956.25
2023-03-12T11:46:41.446Z,843.75
2023-03-12T11:47:41.481Z,793.12
2023-03-12T11:48:41.588Z,753.75
2023-03-12T11:49:41.685Z,759.38
2023-03-12T11:50:41.771Z,748.12
2023-03-12T11:51:41.893Z,793.12
2023-03-12T11:52:42.002Z,849.38
2023-03-12T11:53:42.121Z,866.25
2023-03-12T11:54:42.238Z,877.50
2023-03-12T11:55:42.339Z,866.25
2023-03-12T11:56:42.454Z,905.62
2023-03-12T11:57:42.564Z,1046.25
2023-03-12T11:58:42.666Z,1153.12
2023-03-12T11:59:42.781Z,1147.50
2023-03-12T12:00:42.907Z,1198.12
2023-03-12T12:01:43.060Z,1226.25
2023-03-12T12:02:43.154Z,1350.00
2023-03-12T12:03:43.261Z,1608.75
2023-03-12T12:04:43.363Z,1991.25
2023-03-12T12:05:43.516Z,1816.88
2023-03-12T12:06:43.984Z,1451.25
2023-03-12T12:07:43.707Z,1378.12
2023-03-12T12:08:43.797Z,1186.88
2023-03-12T12:09:43.907Z,1113.75
2023-03-12T12:10:43.989Z,1040.62
2023-03-12T12:11:44.163Z,956.25
2023-03-12T12:12:44.144Z,866.25
2023-03-12T12:13:44.258Z,770.62
2023-03-12T12:14:44.346Z,736.88
2023-03-12T12:15:44.460Z,731.25
2023-03-12T12:16:44.642Z,748.12
2023-03-12T12:17:44.670Z,748.12
2023-03-12T12:18:44.804Z,736.88
2023-03-12T12:19:44.936Z,765.00
2023-03-12T12:20:45.088Z,866.25
2023-03-12T12:21:45.272Z,860.62
2023-03-12T12:22:45.147Z,843.75
2023-03-12T12:23:45.267Z,911.25
2023-03-12T12:24:45.391Z,1096.88
2023-03-12T12:25:45.502Z,973.12
2023-03-12T12:26:45.587Z,849.38
2023-03-12T12:27:45.705Z,793.12
2023-03-12T12:28:45.798Z,765.00
2023-03-12T12:29:45.981Z,770.62
2023-03-12T12:30:46.003Z,815.62
2023-03-12T12:31:46.286Z,826.88
2023-03-12T12:32:47.328Z,759.38
2023-03-12T12:33:46.312Z,714.38
2023-03-12T12:34:46.437Z,697.50
2023-03-12T12:35:46.632Z,691.88
2023-03-12T12:36:46.621Z,658.12
2023-03-12T12:37:46.740Z,652.50
2023-03-12T12:38:46.855Z,675.00
2023-03-12T12:39:47.203Z,691.88
2023-03-12T12:40:47.098Z,714.38
2023-03-12T12:41:48.666Z,736.88
2023-03-12T12:42:47.335Z,765.00
2023-03-12T12:43:47.472Z,781.88